Time;durP1;ratioP1;P1;durP2;ratioP2;P2;SDS_P1;SDS_P2;PMS_P1;PMS_P2;Temp;Humidity;BMP_temperature;BMP_pressure;BME280_temperature;BME280_humidity;BME280_pressure;Samples;Min_cycle;Max_cycle;Signal;HPM_P1;HPM_P2
2021/12/05 00:23:16;;;;;;;;;;;;;;;3.17;100.00;92428.00;5010317;28;19987;-81
2021/12/05 00:25:47;;;;;;;;;;;;;;;3.15;100.00;92429.91;5010313;28;19926;-81
2021/12/05 00:28:39;;;;;;;;;;;;;;;3.19;100.00;92430.31;5010415;28;19925;-81
2021/12/05 00:31:20;;;;;;;;;;;;;;;3.21;100.00;92436.78;5012436;28;19924;-81
2021/12/05 00:34:01;;;;;;;;;;;;;;;3.26;100.00;92443.88;5018695;28;19965;-81
2021/12/05 00:48:17;;;;;;;;;;;;;;;3.33;100.00;92426.94;5012693;28;20023;-81
2021/12/05 00:56:33;;;;;;;;;;;;;;;3.34;100.00;92408.19;4936308;28;19922;-80
2021/12/05 01:04:56;;;;;;;;;;;;;;;3.38;100.00;92406.06;5011903;28;19934;-81
2021/12/05 01:10:31;;;;;;;;;;;;;;;3.34;100.00;92407.41;4943861;29;20373;-80
2021/12/05 01:13:24;;;;;;;;;;;;;;;3.31;100.00;92400.97;5011518;28;19928;-80
2021/12/05 01:15:51;;;;;;;;;;;;;;;3.33;100.00;92399.00;5018469;28;19992;-80
2021/12/05 01:18:20;;;;;;;;;;;;;;;3.33;100.00;92405.81;5013801;28;20274;-81
2021/12/05 01:20:52;;;;;;;;;;;;;;;3.31;100.00;92403.50;5013497;28;20294;-81
2021/12/05 01:23:27;;;;;;;;;;;;;;;3.33;100.00;92393.94;5013562;28;19969;-80
2021/12/05 01:26:00;;;;;;;;;;;;;;;3.30;100.00;92389.25;5013215;28;19933;-80
2021/12/05 01:28:30;;;;;;;;;;;;;;;3.28;100.00;92388.63;5013335;28;20514;-80
2021/12/05 01:31:08;;;;;;;;;;;;;;;3.29;100.00;92394.50;5013456;28;20016;-80
2021/12/05 01:33:43;;;;;;;;;;;;;;;3.26;100.00;92377.09;5013170;28;20015;-80
2021/12/05 01:36:16;;;;;;;;;;;;;;;3.20;100.00;92371.00;5013194;28;20650;-80
2021/12/05 01:39:04;;;;;;;;;;;;;;;3.18;100.00;92371.19;5013028;28;19969;-80
2021/12/05 01:53:13;;;;;;;;;;;;;;;3.09;100.00;92361.38;5002433;28;20428;-83
2021/12/05 01:58:45;;;;;;;;;;;;;;;3.09;100.00;92368.97;5012747;28;19945;-82
2021/12/05 02:01:43;;;;;;;;;;;;;;;3.11;100.00;92374.66;5012953;28;19928;-81
2021/12/05 02:09:53;;;;;;;;;;;;;;;3.20;100.00;92393.84;5012719;28;19944;-80
2021/12/05 02:35:20;;;;;;;;;;;;;;;2.35;100.00;92427.41;5011496;28;19925;-81
2021/12/05 02:38:15;;;;;;;;;;;;;;;2.43;100.00;92422.25;5012091;28;19964;-82
2021/12/05 02:41:03;;;;;;;;;;;;;;;2.57;100.00;92419.84;5011816;28;19928;-81
2021/12/05 02:43:34;;;;;;;;;;;;;;;2.67;100.00;92417.78;5012102;28;19929;-82
2021/12/05 02:46:03;;;;;;;;;;;;;;;2.74;100.00;92415.34;5012069;28;20006;-82
2021/12/05 02:48:32;;;;;;;;;;;;;;;2.79;100.00;92415.56;5011710;28;19955;-82
2021/12/05 02:51:00;;;;;;;;;;;;;;;2.85;100.00;92411.50;5011643;28;19976;-81
2021/12/05 02:53:37;;;;;;;;;;;;;;;2.90;100.00;92420.16;5011421;28;20021;-81
2021/12/05 02:56:05;;;;;;;;;;;;;;;2.96;100.00;92421.16;5011519;28;19921;-81
2021/12/05 02:58:39;;;;;;;;;;;;;;;3.00;100.00;92414.78;5011539;28;19925;-82
2021/12/05 03:01:11;;;;;;;;;;;;;;;3.04;100.00;92418.53;5011398;28;20392;-81
2021/12/05 03:03:38;;;;;;;;;;;;;;;3.09;100.00;92417.19;5011845;28;19944;-81
2021/12/05 03:06:11;;;;;;;;;;;;;;;3.09;100.00;92415.44;5011344;28;19925;-81
2021/12/05 03:08:39;;;;;;;;;;;;;;;3.07;100.00;92404.69;5011447;28;19921;-81
2021/12/05 03:11:06;;;;;;;;;;;;;;;3.09;100.00;92407.81;5011185;28;20016;-81
2021/12/05 03:13:34;;;;;;;;;;;;;;;3.10;100.00;92413.69;5011382;28;19932;-81
2021/12/05 03:16:00;;;;;;;;;;;;;;;3.12;100.00;92407.47;5011467;28;19925;-81
2021/12/05 03:18:27;;;;;;;;;;;;;;;3.12;100.00;92407.47;5011062;28;19921;-81
2021/12/05 03:20:53;;;;;;;;;;;;;;;3.11;100.00;92397.47;5011169;28;19927;-81
2021/12/05 03:23:20;;;;;;;;;;;;;;;3.11;100.00;92400.81;5011417;28;19976;-81
2021/12/05 03:25:48;;;;;;;;;;;;;;;3.11;100.00;92405.09;5010933;28;20408;-82
2021/12/05 03:28:15;;;;;;;;;;;;;;;3.13;100.00;92410.75;5010696;28;19921;-82
2021/12/05 03:30:41;;;;;;;;;;;;;;;3.11;100.00;92395.75;5010994;28;19967;-82
2021/12/05 03:33:08;;;;;;;;;;;;;;;2.99;100.00;92389.56;5010718;28;19921;-82
2021/12/05 03:35:34;;;;;;;;;;;;;;;3.03;100.00;92390.78;5010719;28;19925;-82
2021/12/05 03:38:01;;;;;;;;;;;;;;;3.03;100.00;92395.88;5011100;28;20289;-82
2021/12/05 03:40:30;;;;;;;;;;;;;;;2.96;100.00;92385.66;5010787;28;19925;-82
2021/12/05 03:42:58;;;;;;;;;;;;;;;2.96;100.00;92383.13;5010706;28;19925;-82
2021/12/05 03:45:26;;;;;;;;;;;;;;;2.85;100.00;92378.53;5010991;28;20633;-82
2021/12/05 03:47:53;;;;;;;;;;;;;;;2.76;100.00;92388.03;5010567;28;19925;-82
2021/12/05 03:50:20;;;;;;;;;;;;;;;2.75;100.00;92383.94;5010897;28;20379;-82
2021/12/05 03:52:47;;;;;;;;;;;;;;;2.71;100.00;92388.59;5010409;28;20393;-82
2021/12/05 03:55:14;;;;;;;;;;;;;;;2.23;100.00;92392.41;5010680;28;20050;-82
2021/12/05 03:57:41;;;;;;;;;;;;;;;1.81;100.00;92393.88;5010583;28;20373;-80
2021/12/05 04:00:12;;;;;;;;;;;;;;;1.70;100.00;92395.09;5010598;28;19925;-81
2021/12/05 04:02:39;;;;;;;;;;;;;;;1.81;100.00;92401.47;5010378;28;19921;-81
2021/12/05 04:05:06;;;;;;;;;;;;;;;1.86;100.00;92392.38;5010518;28;20300;-82
2021/12/05 04:07:33;;;;;;;;;;;;;;;1.94;100.00;92400.88;5010267;28;19921;-81
2021/12/05 04:09:59;;;;;;;;;;;;;;;2.04;100.00;92392.97;5010688;28;20614;-81
2021/12/05 04:12:26;;;;;;;;;;;;;;;2.07;100.00;92388.34;5010403;28;19971;-82
2021/12/05 04:14:54;;;;;;;;;;;;;;;1.97;100.00;92391.16;5010361;28;19928;-81
2021/12/05 04:17:23;;;;;;;;;;;;;;;1.57;100.00;92395.75;5010505;28;20012;-82
2021/12/05 04:19:50;;;;;;;;;;;;;;;1.42;100.00;92404.09;5010055;28;19925;-82
2021/12/05 04:22:17;;;;;;;;;;;;;;;1.35;100.00;92402.44;5010303;28;19928;-81
2021/12/05 04:24:44;;;;;;;;;;;;;;;1.24;100.00;92409.47;5010473;28;20013;-81
2021/12/05 04:27:11;;;;;;;;;;;;;;;1.00;100.00;92400.38;5010035;28;19925;-81
2021/12/05 04:29:38;;;;;;;;;;;;;;;0.95;100.00;92402.63;5009999;28;19921;-81
2021/12/05 04:32:05;;;;;;;;;;;;;;;1.05;100.00;92401.44;5010039;28;20005;-82
2021/12/05 04:34:33;;;;;;;;;;;;;;;1.28;100.00;92398.06;5010073;28;19968;-82
2021/12/05 04:37:00;;;;;;;;;;;;;;;1.33;100.00;92402.59;5010070;28;19921;-82
2021/12/05 04:39:27;;;;;;;;;;;;;;;1.51;100.00;92409.06;5009903;28;19921;-81
2021/12/05 04:41:54;;;;;;;;;;;;;;;1.42;100.00;92411.69;5010204;28;19928;-81
2021/12/05 04:44:22;;;;;;;;;;;;;;;1.22;100.00;92408.06;5009835;28;19929;-80
2021/12/05 04:46:49;;;;;;;;;;;;;;;1.26;100.00;92411.84;4999896;28;19922;-82
2021/12/05 04:49:16;;;;;;;;;;;;;;;1.20;100.00;92411.56;5009815;28;19925;-83
2021/12/05 04:51:45;;;;;;;;;;;;;;;1.17;100.00;92421.25;5010084;28;19921;-82
2021/12/05 04:54:14;;;;;;;;;;;;;;;1.14;100.00;92417.31;5009591;28;19922;-82
2021/12/05 04:56:41;;;;;;;;;;;;;;;1.25;100.00;92428.75;5005146;28;20381;-82
2021/12/05 04:59:13;;;;;;;;;;;;;;;1.19;100.00;92430.25;5009551;28;20015;-81
2021/12/05 05:01:39;;;;;;;;;;;;;;;1.20;100.00;92429.28;5010134;28;20434;-82
2021/12/05 05:04:13;;;;;;;;;;;;;;;1.09;100.00;92427.16;5009864;28;19933;-83
2021/12/05 05:06:40;;;;;;;;;;;;;;;1.19;100.00;92442.91;5010455;28;19944;-83
2021/12/05 05:09:08;;;;;;;;;;;;;;;1.03;100.00;92435.44;5010221;28;19921;-83
2021/12/05 05:11:35;;;;;;;;;;;;;;;1.00;100.00;92444.16;5010124;28;19922;-82
2021/12/05 05:14:01;;;;;;;;;;;;;;;0.88;100.00;92437.94;5015558;28;19928;-81
2021/12/05 05:16:28;;;;;;;;;;;;;;;1.10;100.00;92441.38;5014573;28;19928;-80
2021/12/05 05:18:57;;;;;;;;;;;;;;;1.18;100.00;92443.84;5019334;28;20292;-80
2021/12/05 05:21:35;;;;;;;;;;;;;;;1.16;100.00;92445.75;5016388;28;19927;-80
2021/12/05 05:27:06;;;;;;;;;;;;;;;0.95;100.00;92448.13;4992252;28;20019;-81
2021/12/05 05:29:59;;;;;;;;;;;;;;;0.94;100.00;92447.34;5015726;28;19968;-81
2021/12/05 05:41:04;;;;;;;;;;;;;;;0.96;100.00;92445.44;5014929;28;19975;-82
2021/12/05 05:43:42;;;;;;;;;;;;;;;0.91;100.00;92433.31;5015132;28;19968;-82
2021/12/05 05:46:12;;;;;;;;;;;;;;;1.13;100.00;92432.66;5015054;28;20231;-82
2021/12/05 05:48:48;;;;;;;;;;;;;;;1.20;100.00;92424.22;5015650;28;19925;-82
2021/12/05 05:51:15;;;;;;;;;;;;;;;1.40;100.00;92420.41;5015684;28;19972;-82
2021/12/05 05:53:42;;;;;;;;;;;;;;;1.52;100.00;92420.78;5018418;28;20744;-82
2021/12/05 05:56:13;;;;;;;;;;;;;;;1.61;100.00;92417.19;5019110;28;19929;-83
2021/12/05 05:58:46;;;;;;;;;;;;;;;1.75;100.00;92425.75;5018609;28;19991;-81
2021/12/05 06:01:20;;;;;;;;;;;;;;;1.83;100.00;92429.94;5017950;28;20395;-82
2021/12/05 06:03:46;;;;;;;;;;;;;;;1.88;100.00;92435.25;5018722;28;19929;-81
2021/12/05 06:06:13;;;;;;;;;;;;;;;2.00;100.00;92440.69;5018732;28;19929;-81
2021/12/05 06:08:43;;;;;;;;;;;;;;;2.18;100.00;92434.44;5018226;28;20288;-81
2021/12/05 06:11:10;;;;;;;;;;;;;;;2.31;100.00;92442.19;5018397;28;19930;-81
2021/12/05 06:13:37;;;;;;;;;;;;;;;2.46;100.00;92441.38;5018495;28;19921;-82
2021/12/05 06:16:06;;;;;;;;;;;;;;;2.59;100.00;92443.28;5018288;28;20023;-83
2021/12/05 06:18:32;;;;;;;;;;;;;;;2.73;100.00;92452.56;5018204;28;19928;-82
2021/12/05 06:20:59;;;;;;;;;;;;;;;2.85;100.00;92457.16;5018167;28;19929;-82
2021/12/05 06:23:25;;;;;;;;;;;;;;;2.96;100.00;92458.47;5017357;28;19976;-82
2021/12/05 06:25:53;;;;;;;;;;;;;;;3.11;100.00;92459.19;5017696;28;19933;-83
2021/12/05 06:28:25;;;;;;;;;;;;;;;3.21;100.00;92467.25;5018153;28;19921;-83
2021/12/05 06:30:56;;;;;;;;;;;;;;;3.37;100.00;92475.56;5017721;28;20298;-81
2021/12/05 06:41:50;;;;;;;;;;;;;;;3.76;100.00;92504.00;5007055;28;20423;-81
2021/12/05 06:47:00;;;;;;;;;;;;;;;3.85;100.00;92510.50;5017632;28;20485;-81
2021/12/05 06:49:28;;;;;;;;;;;;;;;3.94;100.00;92516.22;5017356;28;19947;-81
2021/12/05 06:51:55;;;;;;;;;;;;;;;3.95;100.00;92517.81;5017575;28;19952;-82
2021/12/05 06:54:22;;;;;;;;;;;;;;;3.95;100.00;92517.00;5016892;28;19921;-83
2021/12/05 06:56:48;;;;;;;;;;;;;;;3.97;100.00;92520.13;5017268;28;20046;-83
2021/12/05 06:59:15;;;;;;;;;;;;;;;3.97;100.00;92518.41;5017421;28;20384;-83
2021/12/05 07:01:42;;;;;;;;;;;;;;;4.01;100.00;92527.22;5017684;28;19929;-83
2021/12/05 07:04:17;;;;;;;;;;;;;;;4.09;100.00;92517.88;5017014;28;19928;-83
2021/12/05 07:06:45;;;;;;;;;;;;;;;4.14;100.00;92521.44;5016942;28;19921;-83
2021/12/05 07:09:12;;;;;;;;;;;;;;;4.21;100.00;92520.69;5016867;28;19921;-84
2021/12/05 07:11:46;;;;;;;;;;;;;;;4.22;100.00;92522.25;5017422;28;19929;-82
2021/12/05 07:17:03;;;;;;;;;;;;;;;4.35;100.00;92526.63;5016770;28;19979;-83
2021/12/05 07:19:41;;;;;;;;;;;;;;;4.40;100.00;92529.41;5017087;28;20292;-83
2021/12/05 07:22:18;;;;;;;;;;;;;;;4.43;100.00;92533.31;5010900;28;19921;-83
2021/12/05 07:24:51;;;;;;;;;;;;;;;4.49;100.00;92524.94;5014704;28;20054;-83
2021/12/05 07:41:12;;;;;;;;;;;;;;;4.86;100.00;92483.97;4968962;28;20406;-83
2021/12/05 07:43:39;;;;;;;;;;;;;;;4.94;100.00;92488.84;5016665;28;19928;-82
2021/12/05 07:46:07;;;;;;;;;;;;;;;5.02;100.00;92481.06;5016208;28;19926;-83
2021/12/05 07:48:36;;;;;;;;;;;;;;;5.13;100.00;92491.66;5016385;28;19929;-82
2021/12/05 07:51:09;;;;;;;;;;;;;;;5.22;100.00;92485.38;5016438;28;19952;-83
2021/12/05 07:53:46;;;;;;;;;;;;;;;5.34;100.00;92490.69;5016350;28;19956;-80
2021/12/05 07:56:17;;;;;;;;;;;;;;;5.49;100.00;92490.50;5016257;28;20018;-81
2021/12/05 07:59:05;;;;;;;;;;;;;;;5.58;100.00;92491.88;5016724;28;20018;-81
2021/12/05 08:15:19;;;;;;;;;;;;;;;6.22;100.00;92514.38;5015859;28;20556;-81
2021/12/05 08:17:51;;;;;;;;;;;;;;;6.30;100.00;92517.69;5015809;28;19929;-81
2021/12/05 08:20:19;;;;;;;;;;;;;;;6.32;100.00;92516.50;5015876;28;20392;-81
2021/12/05 08:22:45;;;;;;;;;;;;;;;6.36;100.00;92520.22;5015856;28;20345;-82
2021/12/05 08:25:14;;;;;;;;;;;;;;;6.40;100.00;92525.72;5016159;28;20042;-81
2021/12/05 08:27:44;;;;;;;;;;;;;;;6.40;100.00;92520.59;5015729;28;19932;-82
2021/12/05 08:30:17;;;;;;;;;;;;;;;6.40;100.00;92518.81;5015642;28;19936;-81
2021/12/05 08:32:57;;;;;;;;;;;;;;;6.47;100.00;92512.94;5015259;28;19921;-81
2021/12/05 08:35:44;;;;;;;;;;;;;;;6.48;100.00;92511.94;5015599;28;19960;-81
2021/12/05 08:41:28;;;;;;;;;;;;;;;6.58;100.00;92509.75;5015343;28;19921;-81
2021/12/05 10:02:12;;;;;;;;;;;;;;;7.94;100.00;92374.16;5123044;28;19931;-79
2021/12/05 10:07:40;;;;;;;;;;;;;;;8.09;100.00;92361.78;5122819;28;20437;-79
2021/12/05 10:10:18;;;;;;;;;;;;;;;8.13;100.00;92362.13;5122703;27;19923;-80
2021/12/05 10:13:10;;;;;;;;;;;;;;;8.16;100.00;92359.16;5122759;28;19969;-80
2021/12/05 10:15:50;;;;;;;;;;;;;;;8.20;100.00;92369.75;5122412;28;19932;-80
2021/12/05 10:27:08;;;;;;;;;;;;;;;8.40;100.00;92356.69;5122620;28;19930;-80
2021/12/05 10:35:25;;;;;;;;;;;;;;;8.61;100.00;92354.69;5108481;28;19953;-79
2021/12/05 10:37:59;;;;;;;;;;;;;;;8.67;100.00;92346.13;5108590;28;20403;-81
2021/12/05 10:40:34;;;;;;;;;;;;;;;8.73;100.00;92345.25;5108389;28;19977;-80
2021/12/05 10:43:01;;;;;;;;;;;;;;;8.82;100.00;92343.16;5108090;28;20394;-81
2021/12/05 10:45:31;;;;;;;;;;;;;;;8.91;100.00;92338.50;5108529;28;20400;-81
2021/12/05 10:47:59;;;;;;;;;;;;;;;9.01;100.00;92335.38;5108812;28;19932;-81
2021/12/05 10:50:30;;;;;;;;;;;;;;;9.05;100.00;92336.50;5108058;28;19935;-81
2021/12/05 10:53:11;;;;;;;;;;;;;;;9.07;100.00;92334.47;5106100;27;20367;-81
2021/12/05 10:55:38;;;;;;;;;;;;;;;9.12;100.00;92315.91;5095647;27;19932;-81
2021/12/05 10:58:05;;;;;;;;;;;;;;;9.09;100.00;92317.88;5108601;27;19954;-81
2021/12/05 11:00:33;;;;;;;;;;;;;;;9.20;100.00;92316.34;5108227;27;19943;-81
2021/12/05 11:03:13;;;;;;;;;;;;;;;9.22;100.00;92321.25;5108184;28;20410;-81
2021/12/05 11:05:41;;;;;;;;;;;;;;;9.20;100.00;92302.75;5108541;28;19931;-81
2021/12/05 11:08:27;;;;;;;;;;;;;;;9.22;100.00;92298.19;5108177;28;19967;-81
2021/12/05 11:11:05;;;;;;;;;;;;;;;9.34;100.00;92298.97;5108224;28;19931;-81
2021/12/05 11:13:32;;;;;;;;;;;;;;;9.46;100.00;92293.03;5107895;28;19932;-80
2021/12/05 11:16:00;;;;;;;;;;;;;;;9.52;100.00;92292.16;5108274;28;19932;-81
2021/12/05 11:18:43;;;;;;;;;;;;;;;9.51;100.00;92290.59;5108082;28;20279;-81
2021/12/05 11:21:25;;;;;;;;;;;;;;;9.60;100.00;92289.25;5107685;28;19938;-80
2021/12/05 11:24:04;;;;;;;;;;;;;;;9.58;100.00;92290.47;5107613;28;19924;-82
2021/12/05 11:26:31;;;;;;;;;;;;;;;9.68;100.00;92282.97;5107975;28;20030;-83
2021/12/05 11:28:57;;;;;;;;;;;;;;;9.76;100.00;92267.22;5107589;27;19932;-83
2021/12/05 11:31:26;;;;;;;;;;;;;;;9.83;100.00;92269.69;5107852;28;19972;-83
2021/12/05 11:33:55;;;;;;;;;;;;;;;9.83;100.00;92264.53;5107667;28;19939;-82
2021/12/05 11:36:23;;;;;;;;;;;;;;;9.99;100.00;92262.22;5107546;28;19924;-81
2021/12/05 11:38:50;;;;;;;;;;;;;;;10.05;100.00;92263.91;5107200;28;20030;-81
2021/12/05 11:41:20;;;;;;;;;;;;;;;10.12;100.00;92258.63;5107480;28;19935;-82
2021/12/05 11:43:48;;;;;;;;;;;;;;;10.12;100.00;92251.72;5107174;27;19979;-82
2021/12/05 11:46:16;;;;;;;;;;;;;;;10.09;100.00;92244.47;5106861;28;20609;-81
2021/12/05 11:48:45;;;;;;;;;;;;;;;10.00;100.00;92243.28;5107300;28;19924;-83
2021/12/05 11:51:27;;;;;;;;;;;;;;;9.98;100.00;92237.59;5106958;28;20426;-81
2021/12/05 11:53:55;;;;;;;;;;;;;;;9.95;100.00;92238.84;5107136;28;19932;-81
2021/12/05 11:56:23;;;;;;;;;;;;;;;10.02;100.00;92239.50;5107745;28;19932;-81
2021/12/05 11:59:06;;;;;;;;;;;;;;;10.10;100.00;92235.00;5108162;28;19927;-82
2021/12/05 12:01:35;;;;;;;;;;;;;;;10.11;100.00;92231.41;5107901;28;19932;-82
2021/12/05 12:04:03;;;;;;;;;;;;;;;10.11;100.00;92234.75;5107557;28;19932;-83
2021/12/05 12:06:30;;;;;;;;;;;;;;;10.10;100.00;92235.75;5105153;28;19931;-81
2021/12/05 12:08:57;;;;;;;;;;;;;;;10.09;100.00;92229.06;5105056;28;19928;-82
2021/12/05 12:11:24;;;;;;;;;;;;;;;10.11;100.00;92216.00;5106256;28;19923;-82
2021/12/05 12:13:51;;;;;;;;;;;;;;;10.07;100.00;92215.69;5106724;28;19928;-82
2021/12/05 12:16:19;;;;;;;;;;;;;;;10.10;100.00;92211.91;5106951;28;19950;-82
2021/12/05 12:18:48;;;;;;;;;;;;;;;10.10;99.83;92204.19;5106970;28;19932;-82
2021/12/05 12:21:19;;;;;;;;;;;;;;;10.07;100.00;92191.81;5105936;28;19935;-83
2021/12/05 12:23:46;;;;;;;;;;;;;;;9.96;99.05;92198.56;5106942;28;19931;-82
2021/12/05 12:26:13;;;;;;;;;;;;;;;9.86;100.00;92188.94;5106680;28;19932;-82
2021/12/05 12:28:40;;;;;;;;;;;;;;;9.80;100.00;92193.19;5107103;28;20298;-82
2021/12/05 12:31:09;;;;;;;;;;;;;;;9.81;100.00;92184.47;5106567;28;19927;-82
2021/12/05 12:33:37;;;;;;;;;;;;;;;9.80;100.00;92195.75;5106271;28;19938;-82
2021/12/05 12:36:05;;;;;;;;;;;;;;;9.73;100.00;92184.84;5106831;28;19931;-81
2021/12/05 12:38:37;;;;;;;;;;;;;;;9.74;100.00;92194.09;5106167;28;19924;-82
2021/12/05 12:41:11;;;;;;;;;;;;;;;9.70;100.00;92196.34;5106158;28;19938;-83
2021/12/05 12:43:43;;;;;;;;;;;;;;;9.71;100.00;92195.34;5106770;28;19931;-83
2021/12/05 12:46:17;;;;;;;;;;;;;;;9.73;100.00;92190.75;5106127;28;19931;-83
2021/12/05 12:48:43;;;;;;;;;;;;;;;9.74;100.00;92191.53;5106567;28;20336;-84
2021/12/05 12:51:24;;;;;;;;;;;;;;;9.79;100.00;92195.97;5106300;28;20624;-83
2021/12/05 12:53:55;;;;;;;;;;;;;;;9.80;100.00;92195.75;5106037;28;19932;-84
2021/12/05 12:56:27;;;;;;;;;;;;;;;9.79;100.00;92198.53;5105939;28;19935;-87
2021/12/05 12:58:56;;;;;;;;;;;;;;;9.73;100.00;92203.56;5105966;28;19931;-85
2021/12/05 13:02:01;;;;;;;;;;;;;;;9.79;100.00;92203.66;5106230;28;19939;-84
2021/12/05 13:04:55;;;;;;;;;;;;;;;9.77;100.00;92196.22;5105782;28;19939;-85
2021/12/05 13:10:19;;;;;;;;;;;;;;;9.79;100.00;92185.69;5105646;28;19947;-85
2021/12/05 13:12:48;;;;;;;;;;;;;;;9.83;100.00;92182.47;5105766;28;20405;-84
2021/12/05 13:15:17;;;;;;;;;;;;;;;9.79;100.00;92188.28;5106165;28;20023;-85
2021/12/05 13:17:44;;;;;;;;;;;;;;;9.77;100.00;92188.53;5105548;28;20394;-85
2021/12/05 13:20:12;;;;;;;;;;;;;;;9.82;100.00;92190.38;5105653;28;19932;-84
2021/12/05 13:22:58;;;;;;;;;;;;;;;9.83;100.00;92181.69;5105738;28;19977;-84
2021/12/05 13:25:26;;;;;;;;;;;;;;;9.82;100.00;92185.25;5106179;28;19927;-84
2021/12/05 13:27:53;;;;;;;;;;;;;;;9.81;100.00;92186.28;5105539;28;20295;-84
2021/12/05 13:30:28;;;;;;;;;;;;;;;9.83;99.50;92186.81;5105562;28;19939;-84
2021/12/05 13:33:09;;;;;;;;;;;;;;;9.85;100.00;92188.13;5105397;28;19939;-84
2021/12/05 13:35:36;;;;;;;;;;;;;;;9.85;99.34;92187.34;5105567;28;19932;-84
2021/12/05 13:38:03;;;;;;;;;;;;;;;9.85;98.64;92192.47;5105923;28;19938;-84
2021/12/05 13:40:33;;;;;;;;;;;;;;;9.83;98.46;92194.50;5105526;28;19976;-84
2021/12/05 13:43:05;;;;;;;;;;;;;;;9.81;98.35;92197.28;5105551;28;20001;-84
2021/12/05 13:45:42;;;;;;;;;;;;;;;9.82;98.32;92188.59;5105521;28;19931;-86
2021/12/05 13:48:25;;;;;;;;;;;;;;;9.80;98.29;92185.47;5105409;28;19959;-85
2021/12/05 13:50:56;;;;;;;;;;;;;;;9.68;98.38;92190.66;5105744;28;19927;-84
2021/12/05 13:53:28;;;;;;;;;;;;;;;9.69;98.72;92188.88;5105148;28;19927;-85
2021/12/05 13:56:06;;;;;;;;;;;;;;;9.63;98.23;92190.59;5105578;28;19931;-84
2021/12/05 13:58:38;;;;;;;;;;;;;;;9.60;98.16;92196.94;5105794;28;19931;-85
2021/12/05 14:01:07;;;;;;;;;;;;;;;9.58;98.56;92193.81;5105711;28;19932;-83
2021/12/05 14:03:45;;;;;;;;;;;;;;;9.54;99.50;92187.56;5105381;28;19976;-84
2021/12/05 14:06:38;;;;;;;;;;;;;;;9.50;99.30;92186.50;5105452;28;19932;-84
2021/12/05 14:09:13;;;;;;;;;;;;;;;9.39;99.28;92180.38;5094656;28;19923;-84
2021/12/05 14:11:44;;;;;;;;;;;;;;;9.30;99.05;92192.78;5108623;28;20013;-84
2021/12/05 14:14:11;;;;;;;;;;;;;;;9.31;99.67;92196.13;5109135;28;19923;-84
2021/12/05 14:16:39;;;;;;;;;;;;;;;9.34;100.00;92199.00;5108901;28;19931;-84
2021/12/05 14:19:07;;;;;;;;;;;;;;;9.34;100.00;92193.88;5108789;28;19935;-84
2021/12/05 14:21:33;;;;;;;;;;;;;;;9.39;99.78;92193.19;5109316;28;19932;-84
2021/12/05 14:24:01;;;;;;;;;;;;;;;9.39;100.00;92195.00;5109212;28;19930;-84
2021/12/05 14:26:30;;;;;;;;;;;;;;;9.30;99.19;92190.22;5108878;28;19932;-84
2021/12/05 14:29:02;;;;;;;;;;;;;;;9.28;99.22;92194.78;5108645;28;19924;-84
2021/12/05 14:31:30;;;;;;;;;;;;;;;9.24;99.77;92193.69;5108945;28;19932;-84
2021/12/05 14:33:57;;;;;;;;;;;;;;;9.16;100.00;92192.25;5108836;28;20419;-84
2021/12/05 14:36:25;;;;;;;;;;;;;;;9.03;100.00;92189.94;5109100;28;21025;-84
2021/12/05 14:39:08;;;;;;;;;;;;;;;8.99;100.00;92199.88;5104904;28;19937;-84
2021/12/05 14:41:35;;;;;;;;;;;;;;;8.91;100.00;92195.06;5107071;28;19932;-85
2021/12/05 14:44:04;;;;;;;;;;;;;;;8.86;100.00;92195.75;5108207;28;19924;-84
2021/12/05 14:46:31;;;;;;;;;;;;;;;8.79;100.00;92192.50;5108501;28;19934;-84
2021/12/05 14:48:57;;;;;;;;;;;;;;;8.77;100.00;92202.19;5108363;28;19939;-84
2021/12/05 14:51:35;;;;;;;;;;;;;;;8.70;100.00;92197.19;5108340;28;20417;-84
2021/12/05 14:54:02;;;;;;;;;;;;;;;8.74;100.00;92211.09;5108025;28;19927;-84
2021/12/05 14:56:29;;;;;;;;;;;;;;;8.73;100.00;92207.00;5107993;28;20045;-84
2021/12/05 14:59:06;;;;;;;;;;;;;;;8.72;100.00;92205.44;5108269;28;19924;-84
2021/12/05 15:01:32;;;;;;;;;;;;;;;8.67;100.00;92200.97;5108069;27;19924;-85
2021/12/05 15:04:01;;;;;;;;;;;;;;;8.68;100.00;92200.00;5108018;28;19923;-85
2021/12/05 15:06:34;;;;;;;;;;;;;;;8.72;100.00;92200.31;5108232;28;19975;-85
2021/12/05 15:09:00;;;;;;;;;;;;;;;8.76;100.00;92190.41;5108518;28;19931;-85
2021/12/05 15:11:27;;;;;;;;;;;;;;;8.81;100.00;92193.06;5107935;28;20572;-84
2021/12/05 15:14:02;;;;;;;;;;;;;;;8.81;100.00;92183.59;5108364;28;19932;-83
2021/12/05 15:16:29;;;;;;;;;;;;;;;8.77;100.00;92182.50;5108095;28;19939;-84
2021/12/05 15:18:56;;;;;;;;;;;;;;;8.76;100.00;92190.41;5108014;28;19931;-83
2021/12/05 15:21:23;;;;;;;;;;;;;;;8.69;100.00;92180.28;5107751;28;19939;-84
2021/12/05 15:23:49;;;;;;;;;;;;;;;8.68;100.00;92188.94;5107445;28;19958;-84
2021/12/05 15:26:16;;;;;;;;;;;;;;;8.67;100.00;92195.09;5107933;28;19930;-84
2021/12/05 15:28:42;;;;;;;;;;;;;;;8.60;100.00;92197.75;5108101;28;19969;-84
2021/12/05 15:31:10;;;;;;;;;;;;;;;8.56;100.00;92204.31;5107269;28;20398;-84
2021/12/05 15:33:38;;;;;;;;;;;;;;;8.51;100.00;92212.63;5107457;28;19931;-84
2021/12/05 15:36:05;;;;;;;;;;;;;;;8.52;100.00;92216.00;5058347;27;20315;-84
2021/12/05 15:38:32;;;;;;;;;;;;;;;8.52;100.00;92223.69;5067623;28;19974;-83
2021/12/05 15:41:00;;;;;;;;;;;;;;;8.52;100.00;92221.88;5067296;28;19932;-84
2021/12/05 15:43:27;;;;;;;;;;;;;;;8.50;100.00;92239.22;5066694;28;20435;-84
2021/12/05 15:45:55;;;;;;;;;;;;;;;8.47;100.00;92249.13;5062068;28;19932;-84
2021/12/05 15:48:23;;;;;;;;;;;;;;;8.42;100.00;92260.78;5063768;28;19932;-84
2021/12/05 15:50:51;;;;;;;;;;;;;;;8.39;100.00;92263.78;5066775;28;19998;-84
2021/12/05 15:53:18;;;;;;;;;;;;;;;8.34;100.00;92271.31;5066631;28;20299;-84
2021/12/05 15:55:46;;;;;;;;;;;;;;;8.32;100.00;92270.03;5066616;28;19924;-84
2021/12/05 15:58:18;;;;;;;;;;;;;;;8.27;100.00;92268.88;5066298;28;19924;-83
2021/12/05 16:00:46;;;;;;;;;;;;;;;8.22;100.00;92267.97;5066616;28;19974;-84
2021/12/05 16:03:15;;;;;;;;;;;;;;;8.20;100.00;92267.41;5066383;28;19936;-84
2021/12/05 16:05:44;;;;;;;;;;;;;;;8.16;100.00;92267.06;5066470;28;19928;-85
2021/12/05 16:08:12;;;;;;;;;;;;;;;8.14;100.00;92264.72;5066073;28;20622;-83
2021/12/05 16:10:40;;;;;;;;;;;;;;;8.17;100.00;92273.75;5066471;28;19932;-83
2021/12/05 16:13:11;;;;;;;;;;;;;;;8.16;100.00;92269.63;5065866;28;20451;-83
2021/12/05 16:15:39;;;;;;;;;;;;;;;8.15;100.00;92263.72;5066458;28;19932;-84
2021/12/05 16:18:06;;;;;;;;;;;;;;;8.07;100.00;92265.81;5065808;28;19932;-84
2021/12/05 16:20:37;;;;;;;;;;;;;;;8.02;100.00;92263.91;5062799;28;19932;-83
2021/12/05 16:23:16;;;;;;;;;;;;;;;8.00;100.00;92259.00;5065982;28;19976;-83
2021/12/05 16:25:44;;;;;;;;;;;;;;;7.91;100.00;92249.31;5065790;28;20384;-85
2021/12/05 16:28:13;;;;;;;;;;;;;;;7.88;100.00;92245.41;5065999;28;19986;-84
2021/12/05 16:30:41;;;;;;;;;;;;;;;7.85;100.00;92243.28;5065294;28;19978;-84
2021/12/05 16:33:08;;;;;;;;;;;;;;;7.84;100.00;92242.50;5065501;28;19974;-85
2021/12/05 16:35:37;;;;;;;;;;;;;;;7.83;100.00;92235.03;5065912;28;19939;-85
2021/12/05 16:38:18;;;;;;;;;;;;;;;7.82;100.00;92233.50;5065432;28;19924;-85
2021/12/05 16:40:51;;;;;;;;;;;;;;;7.85;100.00;92238.94;5065722;28;19993;-85
2021/12/05 16:43:18;;;;;;;;;;;;;;;7.88;100.00;92237.72;5065827;28;19994;-84
2021/12/05 16:45:44;;;;;;;;;;;;;;;7.84;100.00;92246.81;5065377;28;20395;-84
2021/12/05 16:48:15;;;;;;;;;;;;;;;7.83;100.00;92247.81;5065673;28;19928;-85
2021/12/05 16:50:41;;;;;;;;;;;;;;;7.83;100.00;92243.47;5065783;28;19928;-84
2021/12/05 16:53:10;;;;;;;;;;;;;;;7.84;100.00;92252.72;5065481;28;19974;-84
2021/12/05 16:55:41;;;;;;;;;;;;;;;7.82;100.00;92251.38;5065465;28;19971;-84
2021/12/05 16:58:13;;;;;;;;;;;;;;;7.86;100.00;92255.84;5065669;28;19936;-84
2021/12/05 17:00:41;;;;;;;;;;;;;;;7.84;100.00;92254.50;5065464;28;19939;-84
2021/12/05 17:03:09;;;;;;;;;;;;;;;7.83;100.00;92253.69;5065363;28;19925;-84
2021/12/05 17:05:37;;;;;;;;;;;;;;;7.86;100.00;92265.28;5065660;28;19939;-84
2021/12/05 17:08:10;;;;;;;;;;;;;;;7.86;100.00;92263.50;5065569;28;19932;-84
2021/12/05 17:10:40;;;;;;;;;;;;;;;7.91;100.00;92259.53;5065079;28;20026;-84
2021/12/05 17:13:08;;;;;;;;;;;;;;;7.88;100.00;92258.19;5065869;28;19932;-85